Time;durP1;ratioP1;P1;durP2;ratioP2;P2;SDS_P1;SDS_P2;PMS_P1;PMS_P2;Temp;Humidity;BMP_temperature;BMP_pressure;BME280_temperature;BME280_humidity;BME280_pressure;Samples;Min_cycle;Max_cycle;Signal;HPM_P1;HPM_P2
2023/09/05 00:01:54;;;;;;;9.20;6.43;;;17.50;99.90;;;;;;5110016;28;20459;-60
2023/09/05 00:04:21;;;;;;;9.93;6.60;;;17.40;99.90;;;;;;5105618;27;20051;-60
2023/09/05 00:06:49;;;;;;;8.75;6.70;;;17.40;99.90;;;;;;5107992;28;20052;-60
2023/09/05 00:09:18;;;;;;;8.05;6.95;;;17.40;99.90;;;;;;5101018;27;20051;-60
2023/09/05 00:11:48;;;;;;;9.52;7.15;;;17.30;99.90;;;;;;5108447;27;20047;-59
2023/09/05 00:14:18;;;;;;;10.77;7.28;;;17.30;99.90;;;;;;5106660;27;20473;-59
2023/09/05 00:16:46;;;;;;;;;;;17.20;99.90;;;;;;5103078;28;20051;-59
2023/09/05 00:19:13;;;;;;;8.90;6.95;;;17.20;99.90;;;;;;5109323;28;19942;-59
2023/09/05 00:21:41;;;;;;;11.32;7.47;;;17.20;99.90;;;;;;5110511;28;20047;-59
2023/09/05 00:24:31;;;;;;;10.40;7.35;;;17.10;99.90;;;;;;5101311;27;20055;-59
2023/09/05 00:27:03;;;;;;;12.40;8.13;;;17.10;99.90;;;;;;5090803;28;20036;-59
2023/09/05 00:29:31;;;;;;;11.45;8.13;;;17.10;99.90;;;;;;5101331;27;20410;-59
2023/09/05 00:32:03;;;;;;;9.75;7.50;;;17.00;99.90;;;;;;5106599;28;20055;-59
2023/09/05 00:34:33;;;;;;;9.10;7.40;;;17.00;99.90;;;;;;5107633;28;20059;-59
2023/09/05 00:37:06;;;;;;;10.70;6.82;;;17.00;99.90;;;;;;5108855;28;20044;-60
2023/09/05 00:39:34;;;;;;;15.27;8.25;;;16.90;99.90;;;;;;5105490;28;20043;-59
2023/09/05 00:42:05;;;;;;;11.07;7.53;;;16.90;99.90;;;;;;5107454;27;20107;-59
2023/09/05 00:44:33;;;;;;;10.50;7.55;;;16.90;99.90;;;;;;5105981;28;20113;-59
2023/09/05 00:47:01;;;;;;;10.70;8.25;;;16.90;99.90;;;;;;5096416;28;20052;-59
2023/09/05 00:49:29;;;;;;;11.05;7.57;;;16.90;99.90;;;;;;5103141;28;20040;-60
2023/09/05 00:51:59;;;;;;;12.40;8.73;;;16.80;99.90;;;;;;5102033;28;20036;-60
2023/09/05 00:54:27;;;;;;;12.88;7.63;;;16.80;99.90;;;;;;5102664;27;20050;-59
2023/09/05 00:56:55;;;;;;;11.45;7.28;;;16.70;99.90;;;;;;5100860;28;20051;-59
2023/09/05 00:59:23;;;;;;;9.48;7.57;;;16.70;99.90;;;;;;5107390;28;20035;-58
2023/09/05 01:01:51;;;;;;;10.65;7.80;;;16.60;99.90;;;;;;5074164;28;20040;-59
2023/09/05 01:04:19;;;;;;;10.80;7.70;;;16.60;99.90;;;;;;5093689;27;20052;-59
2023/09/05 01:07:05;;;;;;;14.48;8.25;;;16.50;99.90;;;;;;5085396;28;20403;-59
2023/09/05 01:09:42;;;;;;;14.57;7.57;;;16.50;99.90;;;;;;5106264;27;20047;-59
2023/09/05 01:12:10;;;;;;;10.27;7.63;;;16.50;99.90;;;;;;5094757;27;20036;-59
2023/09/05 01:14:38;;;;;;;11.32;7.70;;;16.50;99.90;;;;;;5105293;28;20047;-59
2023/09/05 01:17:06;;;;;;;10.98;6.95;;;16.40;99.90;;;;;;5099029;28;20035;-59
2023/09/05 01:19:38;;;;;;;10.95;7.32;;;16.30;99.90;;;;;;5117219;27;20047;-59
2023/09/05 01:22:24;;;;;;;10.57;8.18;;;16.40;99.90;;;;;;5108190;28;20635;-59
2023/09/05 01:24:52;;;;;;;10.13;7.25;;;16.30;99.90;;;;;;5091508;28;20067;-59
2023/09/05 01:27:22;;;;;;;10.77;7.50;;;16.20;99.90;;;;;;5099632;28;20048;-59
2023/09/05 01:29:51;;;;;;;9.77;7.40;;;16.20;99.90;;;;;;5108450;28;20039;-59
2023/09/05 01:32:23;;;;;;;11.95;8.43;;;16.20;99.90;;;;;;5102757;27;20474;-59
2023/09/05 01:34:51;;;;;;;11.90;8.48;;;16.20;99.90;;;;;;5103076;27;20048;-59
2023/09/05 01:37:18;;;;;;;10.95;8.32;;;16.10;99.90;;;;;;5095114;28;20043;-59
2023/09/05 01:39:46;;;;;;;13.48;8.55;;;16.10;99.90;;;;;;5106782;28;20051;-59
2023/09/05 01:42:14;;;;;;;14.88;9.18;;;16.10;99.90;;;;;;5092062;27;20055;-58
2023/09/05 01:44:41;;;;;;;14.57;9.57;;;16.10;99.90;;;;;;5105505;28;20044;-59
2023/09/05 01:47:09;;;;;;;12.75;8.25;;;16.00;99.90;;;;;;5107094;28;20040;-58
2023/09/05 01:49:37;;;;;;;14.85;9.40;;;16.00;99.90;;;;;;5108359;28;20479;-58
2023/09/05 01:52:06;;;;;;;13.68;9.07;;;16.00;99.90;;;;;;5110598;28;20043;-58
2023/09/05 01:54:39;;;;;;;13.88;9.93;;;15.90;99.90;;;;;;5102142;28;20048;-58
2023/09/05 01:57:07;;;;;;;12.60;9.73;;;15.90;99.90;;;;;;5105793;28;20035;-59
2023/09/05 01:59:34;;;;;;;16.48;8.27;;;15.90;99.90;;;;;;5089891;28;20047;-59
2023/09/05 02:02:02;;;;;;;13.25;8.73;;;15.80;99.90;;;;;;5120376;27;20490;-58
2023/09/05 02:04:30;;;;;;;17.10;9.10;;;15.80;99.90;;;;;;5090454;28;20041;-58
2023/09/05 02:06:59;;;;;;;14.32;9.93;;;15.80;99.90;;;;;;5090262;28;20607;-58
2023/09/05 02:09:26;;;;;;;14.77;9.85;;;15.70;99.90;;;;;;5107962;28;20479;-58
2023/09/05 02:11:54;;;;;;;15.10;9.95;;;15.70;99.90;;;;;;5109753;27;20055;-59
2023/09/05 02:14:22;;;;;;;13.63;9.88;;;15.70;99.90;;;;;;5084234;28;20044;-58
2023/09/05 02:16:49;;;;;;;14.60;10.00;;;15.60;99.90;;;;;;5101811;28;20047;-58
2023/09/05 02:19:19;;;;;;;12.13;9.25;;;15.60;99.90;;;;;;5108317;28;20047;-58
2023/09/05 02:21:49;;;;;;;16.08;10.13;;;15.60;99.90;;;;;;5112042;28;20055;-58
2023/09/05 02:24:16;;;;;;;13.80;10.27;;;15.60;99.90;;;;;;5108747;28;20375;-59
2023/09/05 02:26:44;;;;;;;14.85;9.75;;;15.50;99.90;;;;;;5091251;28;20055;-59
2023/09/05 02:29:12;;;;;;;19.58;11.52;;;15.50;99.90;;;;;;5081328;28;20036;-59
2023/09/05 02:31:39;;;;;;;13.32;9.57;;;15.40;99.90;;;;;;5111424;28;20419;-59
2023/09/05 02:34:08;;;;;;;16.13;10.13;;;15.40;99.90;;;;;;5111270;28;20047;-59
2023/09/05 02:36:36;;;;;;;18.92;10.70;;;15.40;99.90;;;;;;5110634;28;20449;-60
2023/09/05 02:39:05;;;;;;;16.10;10.55;;;15.30;99.90;;;;;;5109345;28;20062;-59
2023/09/05 02:41:32;;;;;;;15.20;10.88;;;15.30;99.90;;;;;;5110719;28;20036;-58
2023/09/05 02:44:01;;;;;;;14.57;10.88;;;15.30;99.90;;;;;;5105829;28;20422;-59
2023/09/05 02:46:29;;;;;;;15.63;10.38;;;15.30;99.90;;;;;;5096752;28;20036;-58
2023/09/05 02:48:57;;;;;;;16.33;10.63;;;15.20;99.90;;;;;;5100600;28;20044;-58
2023/09/05 02:51:25;;;;;;;19.25;10.65;;;15.20;99.90;;;;;;5109488;28;20044;-58
2023/09/05 02:53:56;;;;;;;19.75;10.10;;;15.20;99.90;;;;;;5082726;28;20048;-59
2023/09/05 02:56:24;;;;;;;20.77;11.20;;;15.10;99.90;;;;;;5090418;28;20044;-59
2023/09/05 02:58:52;;;;;;;17.88;10.80;;;15.10;99.90;;;;;;5096678;28;20032;-59
2023/09/05 03:01:22;;;;;;;18.23;10.82;;;15.00;99.90;;;;;;5097602;28;20044;-59
2023/09/05 03:03:49;;;;;;;17.23;9.73;;;15.00;99.90;;;;;;5095010;28;20051;-59
2023/09/05 03:06:17;;;;;;;16.60;9.88;;;15.00;99.90;;;;;;5097812;28;20058;-59
2023/09/05 03:08:46;;;;;;;17.83;10.82;;;15.00;99.90;;;;;;5114355;28;20380;-59
2023/09/05 03:11:18;;;;;;;18.90;11.63;;;14.90;99.90;;;;;;5113344;27;20047;-59
2023/09/05 03:13:47;;;;;;;19.23;11.43;;;14.90;99.90;;;;;;5113277;28;20051;-59
2023/09/05 03:16:17;;;;;;;23.40;13.30;;;14.90;99.90;;;;;;5108973;28;20047;-58
2023/09/05 03:18:49;;;;;;;16.92;10.98;;;14.90;99.90;;;;;;5099931;28;20055;-58
2023/09/05 03:21:17;;;;;;;17.60;10.38;;;14.80;99.90;;;;;;5114942;28;20054;-59
2023/09/05 03:23:45;;;;;;;18.67;11.73;;;14.90;99.90;;;;;;5115218;28;20045;-59
2023/09/05 03:26:12;;;;;;;20.58;11.70;;;14.80;99.90;;;;;;5112992;28;20043;-59
2023/09/05 03:28:45;;;;;;;18.45;11.10;;;14.80;99.90;;;;;;5102298;28;20048;-59
2023/09/05 03:31:16;;;;;;;18.70;11.80;;;14.80;99.90;;;;;;5097893;28;20130;-59
2023/09/05 03:33:44;;;;;;;16.58;10.60;;;14.70;99.90;;;;;;5093367;28;20040;-59
2023/09/05 03:36:11;;;;;;;16.45;10.52;;;14.80;99.90;;;;;;5093204;28;20044;-58
2023/09/05 03:38:39;;;;;;;16.58;9.65;;;14.80;99.90;;;;;;5093299;28;20059;-59
2023/09/05 03:41:07;;;;;;;14.43;9.43;;;14.70;99.90;;;;;;5102312;27;20046;-59
2023/09/05 03:43:35;;;;;;;18.45;10.77;;;14.70;99.90;;;;;;5107131;28;20118;-59
2023/09/05 03:46:02;;;;;;;18.83;10.57;;;14.70;99.90;;;;;;5110860;28;20040;-59
2023/09/05 03:48:30;;;;;;;15.40;9.70;;;14.70;99.90;;;;;;5114582;28;20058;-59
2023/09/05 03:50:58;;;;;;;17.92;9.98;;;14.70;99.90;;;;;;5113056;28;20036;-59
2023/09/05 03:53:26;;;;;;;14.93;10.02;;;14.60;99.90;;;;;;5114348;28;20052;-59
2023/09/05 03:55:55;;;;;;;15.80;9.95;;;14.60;99.90;;;;;;5096779;28;20051;-58
2023/09/05 03:58:22;;;;;;;14.30;9.40;;;14.60;99.90;;;;;;5108139;28;20067;-59
2023/09/05 04:00:51;;;;;;;17.77;10.85;;;14.60;99.90;;;;;;5094209;28;20498;-58
2023/09/05 04:03:18;;;;;;;16.58;10.02;;;14.60;99.90;;;;;;5109096;28;20078;-59
2023/09/05 04:05:46;;;;;;;22.05;11.82;;;14.60;99.90;;;;;;5109233;28;20610;-59
2023/09/05 04:08:14;;;;;;;17.50;10.10;;;14.50;99.90;;;;;;5099502;28;20048;-58
2023/09/05 04:10:42;;;;;;;19.60;10.07;;;14.50;99.90;;;;;;5107035;28;20059;-59
2023/09/05 04:13:10;;;;;;;19.02;9.82;;;14.50;99.90;;;;;;5112423;27;20043;-59
2023/09/05 04:15:37;;;;;;;19.05;9.43;;;14.40;99.90;;;;;;5111683;28;20047;-58
2023/09/05 04:18:05;;;;;;;19.73;10.73;;;14.40;99.90;;;;;;5111958;28;20047;-59
2023/09/05 04:20:33;;;;;;;16.02;9.70;;;14.40;99.90;;;;;;5095672;28;20040;-58
2023/09/05 04:23:01;;;;;;;16.92;10.07;;;14.30;99.90;;;;;;5111353;28;20055;-59
2023/09/05 04:25:28;;;;;;;16.70;10.10;;;14.30;99.90;;;;;;5103115;28;20047;-58
2023/09/05 04:27:56;;;;;;;17.73;10.10;;;14.30;99.90;;;;;;5114177;28;20435;-58
2023/09/05 04:30:23;;;;;;;18.13;10.02;;;14.20;99.90;;;;;;5106837;28;20047;-58
2023/09/05 04:32:51;;;;;;;17.30;10.20;;;14.20;99.90;;;;;;5104118;28;20221;-58
2023/09/05 04:35:20;;;;;;;16.38;10.82;;;14.20;99.90;;;;;;5112113;28;20044;-58
2023/09/05 04:37:51;;;;;;;18.95;10.90;;;14.20;99.90;;;;;;5111544;28;20376;-58
2023/09/05 04:40:21;;;;;;;20.38;11.68;;;14.20;99.90;;;;;;5095436;28;20043;-59
2023/09/05 04:42:49;;;;;;;16.05;9.75;;;14.10;99.90;;;;;;5108561;27;20035;-59
2023/09/05 04:45:17;;;;;;;20.73;10.38;;;14.10;99.90;;;;;;5111692;28;20054;-59
2023/09/05 04:47:44;;;;;;;17.25;9.38;;;14.00;99.90;;;;;;5091846;27;20048;-59
2023/09/05 04:50:12;;;;;;;21.98;9.85;;;14.00;99.90;;;;;;5106734;28;20066;-59
2023/09/05 04:52:40;;;;;;;21.83;9.60;;;13.90;99.90;;;;;;5109600;28;20055;-58
2023/09/05 04:55:08;;;;;;;17.55;9.55;;;13.90;99.90;;;;;;5108739;28;20058;-58
2023/09/05 04:57:35;;;;;;;16.35;9.05;;;13.90;99.90;;;;;;5098473;28;20062;-59
2023/09/05 05:00:04;;;;;;;16.65;9.60;;;13.90;99.90;;;;;;5092685;28;20069;-59
2023/09/05 05:02:34;;;;;;;14.82;9.35;;;13.80;99.90;;;;;;5096556;27;20067;-59
2023/09/05 05:05:02;;;;;;;18.35;9.88;;;13.80;99.90;;;;;;5107132;28;20058;-59
2023/09/05 05:07:30;;;;;;;17.90;8.60;;;13.80;99.90;;;;;;5094049;28;20423;-59
2023/09/05 05:09:58;;;;;;;15.55;9.18;;;13.80;99.90;;;;;;5105277;27;20044;-59
2023/09/05 05:12:25;;;;;;;16.40;9.10;;;13.70;99.90;;;;;;5106946;27;20387;-59
2023/09/05 05:14:53;;;;;;;16.83;8.63;;;13.70;99.90;;;;;;5105553;28;20418;-59
2023/09/05 05:17:21;;;;;;;15.18;8.45;;;13.70;99.90;;;;;;5107229;28;20044;-59
2023/09/05 05:19:48;;;;;;;16.88;9.40;;;13.70;99.90;;;;;;5103638;28;20055;-59
2023/09/05 05:22:16;;;;;;;19.17;9.90;;;13.70;99.90;;;;;;5110183;27;20496;-59
2023/09/05 05:24:44;;;;;;;12.57;9.25;;;13.70;99.90;;;;;;5126346;27;20047;-59
2023/09/05 05:27:11;;;;;;;14.85;9.07;;;13.70;99.90;;;;;;5111738;27;20200;-58
2023/09/05 05:29:39;;;;;;;16.48;9.43;;;13.60;99.90;;;;;;5114002;27;20055;-59
2023/09/05 05:32:07;;;;;;;18.40;10.75;;;13.60;99.90;;;;;;5106074;27;20054;-59
2023/09/05 05:34:35;;;;;;;20.88;10.10;;;13.60;99.90;;;;;;5089230;27;20032;-58
2023/09/05 05:37:03;;;;;;;16.00;9.32;;;13.60;99.90;;;;;;5087916;28;20051;-58
2023/09/05 05:39:31;;;;;;;17.75;9.43;;;13.60;99.90;;;;;;5099660;27;20479;-58
2023/09/05 05:41:58;;;;;;;17.05;9.40;;;13.60;99.90;;;;;;5104082;27;20028;-58
2023/09/05 05:44:26;;;;;;;18.27;9.07;;;13.60;99.90;;;;;;5104316;27;20235;-58
2023/09/05 05:46:56;;;;;;;17.25;9.45;;;13.60;99.90;;;;;;5101581;28;20047;-58
2023/09/05 05:49:28;;;;;;;14.93;9.25;;;13.60;99.90;;;;;;5108323;27;20050;-58
2023/09/05 05:51:58;;;;;;;17.70;10.15;;;13.60;99.90;;;;;;5102687;28;20050;-58
2023/09/05 05:54:27;;;;;;;17.77;9.77;;;13.60;99.90;;;;;;5105793;28;20063;-59
2023/09/05 05:56:55;;;;;;;23.58;10.95;;;13.60;99.90;;;;;;5107578;28;20039;-59
2023/09/05 05:59:24;;;;;;;21.90;10.88;;;13.50;99.90;;;;;;5102732;28;20040;-59
2023/09/05 06:01:52;;;;;;;23.27;11.85;;;13.60;99.90;;;;;;5093642;27;20058;-58
2023/09/05 06:04:20;;;;;;;21.95;10.65;;;13.50;99.90;;;;;;5102621;27;20032;-59
2023/09/05 06:06:49;;;;;;;19.05;11.05;;;13.60;99.90;;;;;;5096043;28;20492;-59
2023/09/05 06:09:18;;;;;;;24.07;10.50;;;13.60;99.90;;;;;;5087632;28;20063;-59
2023/09/05 06:11:47;;;;;;;26.70;11.18;;;13.60;99.90;;;;;;5108227;28;20629;-59
2023/09/05 06:14:15;;;;;;;18.45;9.77;;;13.60;99.90;;;;;;5108253;27;20047;-59
2023/09/05 06:16:47;;;;;;;21.55;11.95;;;13.60;99.90;;;;;;5106875;28;20039;-59
2023/09/05 06:19:16;;;;;;;26.55;11.50;;;13.70;99.90;;;;;;5094490;28;20079;-59
2023/09/05 06:21:45;;;;;;;23.38;11.57;;;13.70;99.90;;;;;;5087128;28;20048;-59
2023/09/05 06:24:13;;;;;;;19.52;11.18;;;13.70;99.90;;;;;;5105473;27;20051;-59
2023/09/05 06:26:44;;;;;;;28.40;14.68;;;13.80;99.90;;;;;;5099549;28;20031;-59
2023/09/05 06:29:12;;;;;;;27.83;14.85;;;13.80;99.90;;;;;;5103124;27;20036;-59
2023/09/05 06:31:45;;;;;;;32.20;14.48;;;13.80;99.90;;;;;;5090647;28;20054;-59
2023/09/05 06:34:12;;;;;;;26.20;14.02;;;13.90;99.90;;;;;;5091215;28;20059;-59
2023/09/05 06:36:41;;;;;;;29.13;15.38;;;14.00;99.90;;;;;;5090494;28;20043;-59
2023/09/05 06:39:08;;;;;;;33.42;14.90;;;14.00;99.90;;;;;;5101818;28;20478;-59
2023/09/05 06:41:37;;;;;;;29.08;15.15;;;14.10;99.90;;;;;;5105915;28;20074;-59
2023/09/05 06:44:05;;;;;;;34.58;17.88;;;14.20;99.90;;;;;;5124667;28;20058;-59
2023/09/05 06:46:35;;;;;;;36.78;18.65;;;14.30;99.90;;;;;;5102894;28;20219;-59
2023/09/05 06:49:03;;;;;;;34.72;18.90;;;14.40;99.90;;;;;;5098369;28;20052;-59
2023/09/05 06:51:31;;;;;;;36.75;17.88;;;14.40;99.90;;;;;;5104017;28;20048;-59
2023/09/05 06:53:59;;;;;;;29.90;17.27;;;14.60;99.90;;;;;;5103243;28;20055;-59
2023/09/05 06:56:27;;;;;;;35.00;18.10;;;14.70;99.90;;;;;;5094784;28;20047;-59
2023/09/05 06:58:55;;;;;;;34.47;17.70;;;14.90;99.90;;;;;;5098336;28;20046;-59
2023/09/05 07:01:24;;;;;;;36.97;16.73;;;15.00;99.90;;;;;;5088767;28;20046;-59
2023/09/05 07:03:52;;;;;;;32.38;16.92;;;15.10;99.90;;;;;;5096880;28;20849;-59
2023/09/05 07:06:21;;;;;;;32.65;17.90;;;15.20;99.90;;;;;;5095265;28;20052;-59
2023/09/05 07:08:49;;;;;;;31.65;17.35;;;15.30;99.90;;;;;;5099437;28;20051;-59
2023/09/05 07:11:18;;;;;;;29.70;17.35;;;15.40;99.90;;;;;;5107376;28;20039;-59
2023/09/05 07:13:45;;;;;;;32.35;17.48;;;15.50;99.90;;;;;;5098522;28;20036;-59
2023/09/05 07:16:13;;;;;;;29.35;16.58;;;15.70;99.90;;;;;;5104051;28;20413;-59
2023/09/05 07:18:41;;;;;;;38.95;17.15;;;15.80;99.90;;;;;;5107755;28;20040;-60
2023/09/05 07:21:09;;;;;;;32.17;16.77;;;15.90;99.90;;;;;;5090862;28;20387;-59
2023/09/05 07:23:37;;;;;;;27.80;16.13;;;16.00;99.90;;;;;;5105515;28;20047;-59
2023/09/05 07:26:05;;;;;;;30.90;16.65;;;16.10;99.90;;;;;;5106500;28;20050;-59
2023/09/05 07:28:34;;;;;;;29.77;16.65;;;16.20;99.90;;;;;;5100908;28;20040;-59
2023/09/05 07:31:02;;;;;;;28.30;16.75;;;16.30;99.90;;;;;;5099270;28;20486;-60
2023/09/05 07:33:31;;;;;;;28.70;16.00;;;16.30;99.90;;;;;;5101866;28;20048;-59
2023/09/05 07:35:59;;;;;;;27.77;16.25;;;16.50;99.90;;;;;;5102321;28;20050;-59
2023/09/05 07:38:28;;;;;;;27.15;15.63;;;16.60;99.90;;;;;;5105200;28;20047;-59
2023/09/05 07:41:03;;;;;;;27.90;15.73;;;16.70;99.90;;;;;;5102159;28;20043;-59
2023/09/05 07:43:33;;;;;;;28.50;16.95;;;16.80;99.90;;;;;;5102042;28;20046;-59
2023/09/05 07:46:01;;;;;;;;;;;16.90;99.90;;;;;;5108880;27;20043;-59
2023/09/05 07:48:29;;;;;;;28.38;14.35;;;17.10;99.90;;;;;;5116951;27;19942;-59
2023/09/05 07:51:06;;;;;;;22.48;13.10;;;17.20;99.90;;;;;;5103676;27;20485;-59
2023/09/05 07:53:35;;;;;;;21.67;12.82;;;17.30;99.90;;;;;;5093052;28;20055;-59
2023/09/05 07:56:04;;;;;;;23.63;13.40;;;17.40;99.90;;;;;;5103702;27;20064;-58
2023/09/05 07:58:33;;;;;;;23.67;13.55;;;17.50;99.90;;;;;;5099596;28;20086;-59
2023/09/05 08:01:00;;;;;;;24.55;13.13;;;17.70;99.90;;;;;;5104480;28;20393;-59
2023/09/05 08:03:28;;;;;;;26.63;13.52;;;17.80;99.90;;;;;;5123016;27;20047;-59
2023/09/05 08:05:56;;;;;;;20.83;12.73;;;17.90;99.90;;;;;;5098393;27;20040;-60
2023/09/05 08:08:24;;;;;;;21.77;12.13;;;18.10;99.90;;;;;;5118522;27;20398;-59
2023/09/05 08:10:52;;;;;;;19.95;12.88;;;18.20;99.90;;;;;;5121905;27;20048;-58
2023/09/05 08:13:20;;;;;;;19.40;12.95;;;18.40;99.90;;;;;;5121758;27;20055;-58
2023/09/05 08:15:48;;;;;;;21.95;12.57;;;18.50;99.90;;;;;;5131017;27;20066;-59
2023/09/05 08:18:16;;;;;;;19.75;13.60;;;18.60;99.90;;;;;;5110070;28;20066;-59
2023/09/05 08:20:44;;;;;;;19.75;12.32;;;18.80;99.90;;;;;;5093568;27;20052;-59
2023/09/05 08:23:13;;;;;;;20.85;13.68;;;18.90;99.90;;;;;;5108110;28;20047;-59
2023/09/05 08:25:40;;;;;;;19.20;12.77;;;19.00;99.90;;;;;;5094238;28;20036;-59
2023/09/05 08:28:09;;;;;;;19.65;13.80;;;19.10;99.90;;;;;;5109333;27;20046;-59
2023/09/05 08:30:36;;;;;;;19.83;12.80;;;19.20;99.90;;;;;;5123464;27;20062;-59
2023/09/05 08:33:04;;;;;;;23.30;13.18;;;19.20;99.90;;;;;;5103128;27;20304;-59
2023/09/05 08:35:32;;;;;;;18.65;13.55;;;19.30;99.90;;;;;;5098448;28;20039;-58
2023/09/05 08:38:02;;;;;;;20.58;13.60;;;19.40;99.90;;;;;;5100855;28;20040;-59
2023/09/05 08:40:34;;;;;;;19.48;12.75;;;19.60;99.90;;;;;;5092648;27;20040;-58
2023/09/05 08:43:02;;;;;;;22.30;12.98;;;19.60;99.90;;;;;;5113553;27;20038;-59
2023/09/05 08:45:31;;;;;;;21.00;13.23;;;19.70;99.90;;;;;;5097148;27;20040;-59
2023/09/05 08:47:59;;;;;;;17.63;12.38;;;19.80;99.90;;;;;;5113297;27;20035;-59
2023/09/05 08:50:30;;;;;;;18.03;12.33;;;19.90;99.90;;;;;;5104322;27;20055;-59
2023/09/05 08:53:00;;;;;;;18.67;11.57;;;20.00;99.90;;;;;;5102835;28;20058;-59
2023/09/05 08:55:29;;;;;;;17.65;11.80;;;20.10;99.90;;;;;;5107840;27;20403;-59
2023/09/05 08:57:59;;;;;;;21.77;12.53;;;20.30;99.90;;;;;;5106137;28;20044;-58
2023/09/05 09:00:28;;;;;;;16.17;11.95;;;20.30;99.90;;;;;;5092722;28;20228;-59
2023/09/05 09:02:59;;;;;;;16.25;11.48;;;20.40;99.90;;;;;;5106200;27;20058;-59
2023/09/05 09:05:28;;;;;;;19.33;11.07;;;20.50;99.90;;;;;;5092433;28;20044;-59
2023/09/05 09:07:56;;;;;;;14.55;10.40;;;20.60;99.90;;;;;;5113870;27;20047;-59
2023/09/05 09:10:24;;;;;;;15.43;10.43;;;20.60;99.90;;;;;;5099305;28;20044;-59
2023/09/05 09:12:54;;;;;;;15.40;10.35;;;20.80;99.90;;;;;;5103793;27;20061;-59
2023/09/05 09:15:26;;;;;;;15.80;10.40;;;20.90;99.90;;;;;;5104258;28;20111;-59
2023/09/05 09:17:57;;;;;;;11.85;8.85;;;21.00;99.90;;;;;;5107891;27;20043;-58
2023/09/05 09:20:28;;;;;;;16.05;10.35;;;21.10;99.90;;;;;;5108342;28;20058;-59
2023/09/05 09:22:55;;;;;;;14.07;10.68;;;21.20;99.90;;;;;;5104793;28;20040;-59
2023/09/05 09:25:23;;;;;;;12.07;8.82;;;21.30;99.90;;;;;;5102199;27;20047;-58
2023/09/05 09:27:53;;;;;;;14.45;8.93;;;21.40;99.90;;;;;;5096785;27;20518;-59
2023/09/05 09:30:27;;;;;;;14.43;9.02;;;21.50;99.90;;;;;;5096249;28;20039;-59
2023/09/05 09:32:55;;;;;;;13.90;8.65;;;21.60;99.90;;;;;;5110360;27;20058;-58
2023/09/05 09:35:26;;;;;;;16.95;9.00;;;21.60;99.90;;;;;;5108473;27;20043;-58
2023/09/05 09:37:55;;;;;;;12.60;7.35;;;21.80;99.90;;;;;;5102179;28;20055;-58
2023/09/05 09:40:23;;;;;;;16.25;7.78;;;21.80;99.90;;;;;;5104157;27;20055;-58
2023/09/05 09:42:51;;;;;;;11.75;6.32;;;21.90;99.90;;;;;;5101175;27;20040;-58
2023/09/05 09:45:19;;;;;;;11.55;6.88;;;22.00;99.90;;;;;;5095902;28;20070;-58
2023/09/05 09:47:51;;;;;;;10.70;6.53;;;22.10;99.90;;;;;;5106903;28;20051;-58
2023/09/05 09:50:20;;;;;;;9.73;6.20;;;22.10;99.90;;;;;;5095515;28;20048;-58
2023/09/05 09:52:53;;;;;;;7.40;5.25;;;22.20;99.90;;;;;;5102663;27;20047;-58
2023/09/05 09:55:24;;;;;;;9.30;5.45;;;22.30;99.90;;;;;;5129146;27;20062;-58
2023/09/05 09:58:00;;;;;;;10.23;4.97;;;22.40;99.90;;;;;;5105480;28;20054;-59
2023/09/05 10:00:32;;;;;;;9.65;5.07;;;22.50;99.90;;;;;;5105519;28;20058;-58
2023/09/05 10:03:00;;;;;;;9.35;4.88;;;22.60;99.90;;;;;;5107959;28;20039;-58
2023/09/05 10:05:31;;;;;;;7.15;4.93;;;22.80;99.90;;;;;;5097451;28;20522;-59
2023/09/05 10:08:00;;;;;;;7.43;4.65;;;22.90;99.90;;;;;;5098348;27;20054;-59
2023/09/05 10:10:33;;;;;;;7.93;4.60;;;23.00;99.90;;;;;;5111257;27;20047;-59
2023/09/05 10:13:02;;;;;;;7.72;5.35;;;23.10;99.90;;;;;;5098826;27;20048;-59
2023/09/05 10:15:30;;;;;;;6.32;4.03;;;23.20;99.90;;;;;;5107514;28;20044;-58
2023/09/05 10:17:59;;;;;;;6.85;4.32;;;23.30;99.90;;;;;;5108624;27;20039;-59
2023/09/05 10:20:28;;;;;;;3.95;3.35;;;23.50;99.90;;;;;;5105123;28;20062;-59
2023/09/05 10:22:57;;;;;;;7.65;4.68;;;23.60;99.90;;;;;;5109053;27;20044;-58
2023/09/05 10:25:27;;;;;;;5.38;3.58;;;23.70;99.90;;;;;;5108783;28;20054;-58
2023/09/05 10:27:55;;;;;;;9.00;4.03;;;23.80;99.90;;;;;;5094858;28;20234;-58
2023/09/05 10:30:23;;;;;;;5.50;3.35;;;23.90;99.90;;;;;;5108608;28;20040;-58
2023/09/05 10:32:53;;;;;;;5.45;3.33;;;24.00;99.70;;;;;;5109321;28;20040;-58
2023/09/05 10:35:22;;;;;;;4.03;2.72;;;24.10;99.70;;;;;;5108409;28;20043;-60
2023/09/05 10:38:03;;;;;;;5.30;2.92;;;24.20;99.90;;;;;;5108328;28;20405;-58
2023/09/05 10:40:38;;;;;;;4.55;2.72;;;24.30;99.60;;;;;;5102191;28;20044;-58
2023/09/05 10:43:09;;;;;;;7.00;2.92;;;24.40;98.90;;;;;;5105463;28;20566;-58
2023/09/05 10:45:37;;;;;;;4.90;3.03;;;24.60;98.10;;;;;;5108318;28;20051;-59
2023/09/05 10:48:16;;;;;;;5.78;3.08;;;24.70;98.10;;;;;;5114436;28;20478;-58
2023/09/05 10:51:03;;;;;;;4.05;2.60;;;24.70;97.90;;;;;;5129005;28;20066;-58
2023/09/05 10:53:31;;;;;;;7.90;2.50;;;24.70;97.20;;;;;;5103746;28;20046;-61
2023/09/05 10:55:59;;;;;;;3.05;2.20;;;24.80;97.20;;;;;;5087289;28;20051;-60
2023/09/05 10:58:48;;;;;;;4.40;2.30;;;24.80;96.70;;;;;;5095425;28;20051;-60
2023/09/05 11:01:30;;;;;;;5.28;2.60;;;25.00;97.00;;;;;;5102393;28;20051;-58
2023/09/05 11:04:10;;;;;;;3.95;2.22;;;25.10;96.30;;;;;;5104115;28;20040;-61
2023/09/05 11:06:39;;;;;;;5.32;2.10;;;25.10;95.90;;;;;;5097356;28;20121;-59
2023/09/05 11:09:07;;;;;;;7.10;2.30;;;25.30;95.50;;;;;;5113368;28;20078;-59
2023/09/05 11:11:40;;;;;;;5.82;2.20;;;25.30;94.90;;;;;;5105417;28;20032;-59
2023/09/05 11:14:08;;;;;;;5.95;2.15;;;25.40;95.00;;;;;;5079320;28;20048;-58
2023/09/05 11:16:46;;;;;;;3.42;2.28;;;25.50;94.50;;;;;;5096882;28;20040;-59
2023/09/05 11:19:30;;;;;;;2.58;2.10;;;25.50;94.00;;;;;;5093661;28;20051;-59
2023/09/05 11:22:14;;;;;;;2.90;2.28;;;25.70;94.00;;;;;;5108180;28;20056;-59
2023/09/05 11:24:46;;;;;;;6.07;2.45;;;25.80;92.70;;;;;;5107692;28;20610;-59
2023/09/05 11:27:16;;;;;;;3.85;2.05;;;25.90;92.70;;;;;;5106957;28;20514;-59
2023/09/05 11:29:45;;;;;;;6.63;2.45;;;26.00;92.20;;;;;;5107470;28;20052;-59
2023/09/05 11:32:14;;;;;;;3.15;2.50;;;26.20;92.30;;;;;;5108962;28;20054;-59
2023/09/05 11:34:43;;;;;;;;;;;26.40;92.40;;;;;;5098697;28;20043;-59
2023/09/05 11:37:18;;;;;;;3.15;2.20;;;26.50;92.10;;;;;;5105488;28;19919;-58
2023/09/05 11:39:50;;;;;;;5.38;2.30;;;26.70;91.70;;;;;;5101235;27;20653;-58
2023/09/05 11:42:35;;;;;;;4.28;2.50;;;26.80;90.80;;;;;;5096411;27;20047;-58
2023/09/05 11:45:03;;;;;;;4.15;2.63;;;27.00;91.10;;;;;;5098710;28;20040;-58
2023/09/05 11:47:31;;;;;;;4.47;2.22;;;27.20;90.50;;;;;;5115203;27;20039;-58
2023/09/05 11:49:59;;;;;;;4.20;2.22;;;27.50;91.00;;;;;;5106238;28;20646;-59
2023/09/05 11:52:27;;;;;;;4.43;2.33;;;27.70;90.60;;;;;;5111706;27;20547;-59
2023/09/05 11:54:56;;;;;;;7.10;2.10;;;27.90;88.10;;;;;;5105803;27;20048;-59
2023/09/05 11:57:23;;;;;;;4.07;2.08;;;28.10;87.60;;;;;;5108597;27;20039;-59
2023/09/05 11:59:51;;;;;;;5.05;2.03;;;28.30;87.70;;;;;;5111062;27;20418;-59
2023/09/05 12:02:19;;;;;;;3.47;2.20;;;28.60;85.20;;;;;;5111268;27;20051;-59
2023/09/05 12:04:48;;;;;;;5.13;2.45;;;28.70;84.10;;;;;;5094165;28;20043;-59
2023/09/05 12:07:16;;;;;;;5.80;2.10;;;28.80;84.10;;;;;;5108529;28;20044;-59
2023/09/05 12:09:47;;;;;;;2.53;2.10;;;29.00;84.00;;;;;;5115074;27;20483;-59
2023/09/05 12:12:20;;;;;;;3.08;2.08;;;29.20;85.20;;;;;;5102351;28;20085;-60
2023/09/05 12:14:59;;;;;;;4.03;2.33;;;29.30;83.90;;;;;;5102373;27;20051;-59
2023/09/05 12:17:27;;;;;;;2.35;2.10;;;29.40;83.60;;;;;;5100002;27;20052;-59
2023/09/05 12:19:56;;;;;;;3.38;2.85;;;29.60;84.30;;;;;;5096796;28;20055;-59
2023/09/05 12:22:31;;;;;;;4.18;2.80;;;29.90;84.50;;;;;;5112650;27;20409;-60
2023/09/05 12:25:08;;;;;;;3.78;2.40;;;30.10;83.40;;;;;;5120923;27;20498;-59
2023/09/05 12:27:38;;;;;;;3.88;2.40;;;30.30;83.20;;;;;;5113192;27;20499;-59
2023/09/05 12:30:07;;;;;;;2.80;2.42;;;30.60;82.60;;;;;;5131608;27;20075;-59
2023/09/05 12:32:37;;;;;;;4.50;2.90;;;30.80;80.40;;;;;;5118136;27;20035;-59
2023/09/05 12:35:05;;;;;;;4.57;2.60;;;30.80;78.50;;;;;;5131269;27;20050;-58
2023/09/05 12:37:33;;;;;;;6.30;2.97;;;30.70;79.40;;;;;;5117219;27;20043;-58
2023/09/05 12:40:01;;;;;;;4.53;3.05;;;30.70;79.00;;;;;;5099973;28;20044;-59
2023/09/05 12:42:28;;;;;;;8.48;3.45;;;30.70;78.90;;;;;;5091829;28;20040;-58
2023/09/05 12:44:56;;;;;;;5.43;3.00;;;30.70;79.30;;;;;;5107426;27;20105;-58
2023/09/05 12:47:24;;;;;;;4.85;3.20;;;30.70;80.80;;;;;;5103630;27;20040;-59